createdAt,value
2022-12-07T00:01:48.404Z,1.70
2022-12-07T00:04:17.681Z,1.98
2022-12-07T00:06:46.590Z,1.33
2022-12-07T00:09:18.011Z,1.30
2022-12-07T00:11:45.684Z,1.65
2022-12-07T00:14:15.064Z,1.77
2022-12-07T00:16:42.607Z,1.85
2022-12-07T00:19:11.555Z,1.50
2022-12-07T00:21:38.145Z,1.48
2022-12-07T00:24:06.123Z,1.60
2022-12-07T00:26:37.822Z,1.20
2022-12-07T00:29:16.328Z,1.67
2022-12-07T00:31:42.842Z,1.47
2022-12-07T00:34:18.087Z,1.52
2022-12-07T00:36:44.608Z,1.70
2022-12-07T00:39:11.194Z,1.90
2022-12-07T00:41:37.686Z,1.77
2022-12-07T00:44:04.334Z,1.90
2022-12-07T00:46:31.245Z,1.63
2022-12-07T00:48:57.919Z,1.52
2022-12-07T00:51:26.189Z,2.03
2022-12-07T00:53:53.044Z,1.67
2022-12-07T00:56:22.980Z,1.60
2022-12-07T00:58:57.811Z,1.48
2022-12-07T01:01:26.732Z,1.42
2022-12-07T01:03:53.623Z,1.35
2022-12-07T01:06:21.792Z,1.30
2022-12-07T01:08:48.594Z,1.57
2022-12-07T01:11:18.208Z,1.05
2022-12-07T01:13:45.768Z,1.00
2022-12-07T01:16:15.491Z,1.20
2022-12-07T01:18:42.764Z,0.70
2022-12-07T01:21:15.480Z,1.10
2022-12-07T01:23:42.480Z,0.70
2022-12-07T01:26:12.733Z,0.98
2022-12-07T01:28:40.186Z,0.88
2022-12-07T01:31:10.881Z,0.82
2022-12-07T01:33:38.014Z,0.70
2022-12-07T01:36:13.848Z,0.65
2022-12-07T01:38:40.406Z,0.90
2022-12-07T01:41:07.012Z,0.80
2022-12-07T01:43:34.745Z,0.88
2022-12-07T01:46:03.027Z,0.80
2022-12-07T01:48:41.152Z,0.95
2022-12-07T01:51:13.564Z,0.57
2022-12-07T01:53:45.464Z,0.80
2022-12-07T01:56:17.964Z,1.17
2022-12-07T01:58:45.524Z,0.67
2022-12-07T02:01:12.094Z,0.75
2022-12-07T02:03:44.549Z,0.50
2022-12-07T02:06:15.171Z,0.80
2022-12-07T02:08:43.345Z,0.65
2022-12-07T02:11:10.733Z,0.97
2022-12-07T02:13:40.757Z,0.70
2022-12-07T02:16:25.789Z,0.90
2022-12-07T02:19:43.572Z,0.90
2022-12-07T02:22:19.380Z,0.63
2022-12-07T02:24:56.501Z,0.40
2022-12-07T02:28:00.390Z,0.60
2022-12-07T02:30:32.075Z,0.85
2022-12-07T02:33:01.652Z,0.75
2022-12-07T02:36:00.058Z,0.47
2022-12-07T02:38:38.610Z,0.50
2022-12-07T02:41:21.165Z,0.50
2022-12-07T02:43:53.615Z,0.63
2022-12-07T02:46:24.360Z,0.30
2022-12-07T02:48:53.384Z,0.70
2022-12-07T02:51:20.273Z,0.60
2022-12-07T02:53:46.869Z,0.63
2022-12-07T02:56:24.959Z,0.63
2022-12-07T02:58:54.161Z,0.50
2022-12-07T03:01:26.804Z,0.43
2022-12-07T03:04:12.164Z,0.80
2022-12-07T03:06:47.503Z,0.57
2022-12-07T03:09:33.552Z,0.68
2022-12-07T03:12:15.959Z,0.60
2022-12-07T03:15:06.179Z,0.60
2022-12-07T03:17:38.730Z,0.40
2022-12-07T03:20:10.402Z,0.30
2022-12-07T03:22:40.521Z,0.30
2022-12-07T03:25:14.476Z,0.52
2022-12-07T03:27:51.525Z,0.40
2022-12-07T03:30:21.367Z,0.50
2022-12-07T03:33:07.816Z,0.60
2022-12-07T03:35:55.769Z,0.50
2022-12-07T03:38:47.661Z,0.50
2022-12-07T03:41:23.821Z,0.60
2022-12-07T03:43:50.501Z,0.40
2022-12-07T03:46:17.103Z,0.50
2022-12-07T03:49:01.755Z,0.70
2022-12-07T03:51:51.448Z,0.75
2022-12-07T03:54:24.166Z,0.60
2022-12-07T03:56:53.017Z,1.07
2022-12-07T03:59:20.657Z,0.50
2022-12-07T04:01:56.679Z,0.40
2022-12-07T04:04:25.725Z,0.50
2022-12-07T04:06:52.287Z,0.50
2022-12-07T04:09:19.117Z,0.30
2022-12-07T04:11:45.658Z,0.43
2022-12-07T04:14:21.086Z,0.50
2022-12-07T04:16:51.888Z,0.50
2022-12-07T04:19:21.360Z,0.57
2022-12-07T04:21:48.329Z,0.60
2022-12-07T04:24:16.491Z,0.30
2022-12-07T04:26:44.309Z,0.30
2022-12-07T04:29:11.125Z,0.57
2022-12-07T04:31:38.256Z,0.50
2022-12-07T04:34:05.894Z,0.40
2022-12-07T04:36:32.929Z,0.60
2022-12-07T04:38:59.456Z,0.40
2022-12-07T04:41:29.277Z,0.30
2022-12-07T04:43:57.461Z,0.50
2022-12-07T04:46:25.511Z,0.30
2022-12-07T04:48:53.916Z,0.28
2022-12-07T04:51:26.179Z,0.32
2022-12-07T04:53:53.747Z,0.32
2022-12-07T04:56:20.809Z,0.30
2022-12-07T04:58:48.578Z,0.23
2022-12-07T05:01:18.063Z,0.40
2022-12-07T05:03:45.129Z,0.22
2022-12-07T05:06:13.733Z,0.30
2022-12-07T05:08:41.036Z,0.20
2022-12-07T05:11:08.936Z,0.40
2022-12-07T05:13:36.389Z,0.43
2022-12-07T05:16:03.484Z,0.15
2022-12-07T05:18:30.087Z,0.30
2022-12-07T05:20:56.540Z,0.30
2022-12-07T05:23:23.024Z,0.10
2022-12-07T05:25:49.601Z,0.32
2022-12-07T05:28:16.122Z,0.10
2022-12-07T05:30:42.655Z,0.20
2022-12-07T05:33:09.073Z,0.10
2022-12-07T05:35:35.991Z,0.47
2022-12-07T05:38:02.572Z,0.20
2022-12-07T05:40:29.023Z,0.20
2022-12-07T05:42:56.890Z,0.20
2022-12-07T05:45:26.511Z,0.10
2022-12-07T05:47:53.128Z,0.10
2022-12-07T05:50:19.621Z,0.10
2022-12-07T05:52:46.088Z,0.10
2022-12-07T05:55:12.520Z,0.20
2022-12-07T05:57:38.976Z,0.20
2022-12-07T06:00:06.474Z,0.20
2022-12-07T06:02:33.033Z,0.20
2022-12-07T06:04:59.658Z,0.20
2022-12-07T06:07:26.130Z,0.40
2022-12-07T06:09:52.587Z,0.22
2022-12-07T06:12:39.465Z,0.20
2022-12-07T06:15:06.938Z,0.30
2022-12-07T06:17:33.442Z,0.20
2022-12-07T06:20:00.285Z,0.28
2022-12-07T06:22:27.059Z,0.20
2022-12-07T06:24:53.528Z,0.30
2022-12-07T06:27:20.047Z,0.90
2022-12-07T06:29:46.613Z,0.20
2022-12-07T06:32:13.272Z,0.30
2022-12-07T06:34:39.908Z,0.40
2022-12-07T06:37:06.503Z,0.50
2022-12-07T06:39:33.044Z,0.22
2022-12-07T06:41:59.621Z,0.20
2022-12-07T06:44:26.554Z,0.20
2022-12-07T06:47:06.779Z,0.40
2022-12-07T06:49:40.356Z,0.20
2022-12-07T06:52:06.981Z,0.47
2022-12-07T06:54:33.483Z,0.55
2022-12-07T06:56:59.988Z,0.50
2022-12-07T06:59:26.589Z,0.20
2022-12-07T07:01:53.149Z,0.23
2022-12-07T07:04:19.728Z,0.38
2022-12-07T07:06:46.216Z,0.30
2022-12-07T07:09:12.740Z,0.60
2022-12-07T07:11:39.204Z,0.30
2022-12-07T07:14:05.673Z,0.53
2022-12-07T07:16:33.126Z,1.30
2022-12-07T07:18:59.669Z,2.10
2022-12-07T07:21:26.167Z,1.23
2022-12-07T07:23:53.069Z,0.93
2022-12-07T07:26:23.074Z,0.87
2022-12-07T07:28:49.996Z,0.55
2022-12-07T07:31:16.527Z,0.70
2022-12-07T07:33:43.080Z,0.57
2022-12-07T07:36:10.026Z,0.60
2022-12-07T07:38:36.605Z,0.60
2022-12-07T07:41:03.279Z,0.52
2022-12-07T07:43:29.795Z,1.08
2022-12-07T07:45:56.283Z,1.73
2022-12-07T07:48:23.787Z,0.90
2022-12-07T07:50:50.176Z,1.57
2022-12-07T07:53:16.637Z,1.05
2022-12-07T07:55:50.623Z,0.93
2022-12-07T07:58:17.300Z,0.63
2022-12-07T08:00:43.761Z,1.25
2022-12-07T08:03:10.363Z,0.80
2022-12-07T08:05:38.300Z,0.77
2022-12-07T08:08:04.997Z,1.33
2022-12-07T08:10:33.123Z,0.63
2022-12-07T08:13:15.017Z,0.30
2022-12-07T08:15:44.469Z,0.50
2022-12-07T08:18:11.604Z,0.50
2022-12-07T08:20:39.127Z,0.63
2022-12-07T08:23:06.774Z,0.63
2022-12-07T08:25:33.656Z,0.50
2022-12-07T08:28:01.539Z,0.50
2022-12-07T08:30:29.317Z,0.22
2022-12-07T08:32:56.224Z,0.40
2022-12-07T08:35:22.879Z,0.30
2022-12-07T08:37:49.428Z,0.47
2022-12-07T08:40:16.988Z,0.30
2022-12-07T08:42:45.644Z,0.20
2022-12-07T08:45:14.515Z,0.20
2022-12-07T08:48:07.376Z,0.17
2022-12-07T08:50:34.662Z,0.80
2022-12-07T08:53:01.843Z,2.20
2022-12-07T08:55:29.635Z,2.28
2022-12-07T08:57:58.077Z,1.88
2022-12-07T09:00:24.730Z,1.33
2022-12-07T09:02:51.249Z,0.60
2022-12-07T09:05:17.960Z,0.80
2022-12-07T09:07:48.950Z,0.60
2022-12-07T09:10:15.483Z,0.20
2022-12-07T09:12:41.982Z,0.40
2022-12-07T09:15:09.277Z,0.20
2022-12-07T09:17:37.123Z,0.30
2022-12-07T09:20:05.689Z,0.17
2022-12-07T09:22:33.043Z,0.20
2022-12-07T09:24:59.819Z,0.25
2022-12-07T09:27:27.099Z,0.15
2022-12-07T09:29:53.856Z,0.50
2022-12-07T09:32:20.637Z,0.43
2022-12-07T09:34:47.232Z,0.30
2022-12-07T09:37:13.864Z,0.35
2022-12-07T09:39:46.058Z,0.50
2022-12-07T09:42:30.851Z,1.00
2022-12-07T09:44:59.534Z,0.52
2022-12-07T09:47:26.954Z,0.60
2022-12-07T09:49:56.502Z,0.50
2022-12-07T09:52:34.289Z,0.57
2022-12-07T09:55:10.277Z,0.87
2022-12-07T09:57:38.173Z,0.47
2022-12-07T10:00:12.760Z,0.20
2022-12-07T10:02:43.940Z,0.30
2022-12-07T10:05:23.514Z,0.50
2022-12-07T10:07:50.663Z,0.80
2022-12-07T10:10:25.597Z,0.68
2022-12-07T10:13:13.366Z,0.50
2022-12-07T10:15:49.914Z,0.30
2022-12-07T10:18:30.067Z,0.20
2022-12-07T10:21:17.411Z,0.33
2022-12-07T10:24:04.432Z,0.38
2022-12-07T10:26:37.073Z,0.20
2022-12-07T10:29:24.265Z,0.20
2022-12-07T10:31:57.735Z,0.28
2022-12-07T10:34:27.691Z,0.27
2022-12-07T10:37:07.415Z,0.40
2022-12-07T10:39:42.891Z,0.30
2022-12-07T10:42:21.752Z,0.20
2022-12-07T10:45:11.073Z,0.30
2022-12-07T10:47:41.344Z,0.70
2022-12-07T10:50:29.765Z,0.40
2022-12-07T10:52:59.367Z,0.32
2022-12-07T10:56:05.779Z,0.40
2022-12-07T10:58:57.415Z,0.73
2022-12-07T11:01:47.563Z,0.43
2022-12-07T11:04:41.704Z,0.30
2022-12-07T11:07:20.348Z,0.40
2022-12-07T11:10:14.066Z,0.60
2022-12-07T11:13:25.097Z,0.30
2022-12-07T11:16:02.190Z,0.30
2022-12-07T11:18:47.616Z,0.30
2022-12-07T11:21:20.567Z,0.38
2022-12-07T11:24:12.792Z,0.40
2022-12-07T11:27:16.143Z,0.40
2022-12-07T11:29:52.661Z,0.20
2022-12-07T11:32:40.474Z,0.38
2022-12-07T11:35:32.871Z,0.28
2022-12-07T11:38:08.127Z,0.30
2022-12-07T11:40:37.366Z,0.30
2022-12-07T11:43:18.244Z,0.60
2022-12-07T11:45:52.242Z,0.50
2022-12-07T11:48:25.547Z,0.68
2022-12-07T11:51:03.718Z,1.02
2022-12-07T11:53:56.678Z,0.77
2022-12-07T11:56:26.349Z,0.47
2022-12-07T11:59:07.184Z,0.40
2022-12-07T12:01:57.984Z,0.43
2022-12-07T12:04:31.844Z,0.20
2022-12-07T12:06:58.660Z,0.25
2022-12-07T12:09:39.313Z,0.33
2022-12-07T12:15:44.064Z,0.47
2022-12-07T12:18:35.254Z,0.30
2022-12-07T12:21:19.500Z,0.25
2022-12-07T12:23:56.577Z,0.20
2022-12-07T12:26:26.347Z,0.10
2022-12-07T12:29:00.256Z,0.20
2022-12-07T12:31:29.537Z,0.20
2022-12-07T12:33:58.989Z,0.35
2022-12-07T12:36:28.590Z,0.17
2022-12-07T12:39:17.153Z,0.30
2022-12-07T12:41:49.211Z,0.20
2022-12-07T12:44:15.646Z,0.20
2022-12-07T12:46:51.580Z,0.20
2022-12-07T12:49:18.028Z,0.47
2022-12-07T12:51:49.837Z,0.30
2022-12-07T12:54:19.356Z,0.20
2022-12-07T12:57:13.642Z,0.30
2022-12-07T12:59:43.427Z,0.30
2022-12-07T13:02:25.523Z,0.10
2022-12-07T13:05:03.212Z,0.00
2022-12-07T13:08:02.098Z,0.00
2022-12-07T13:10:31.518Z,0.00
2022-12-07T13:13:16.075Z,0.00
2022-12-07T13:15:50.177Z,0.10
2022-12-07T13:18:28.892Z,0.08
2022-12-07T13:21:00.281Z,0.10
2022-12-07T13:23:45.252Z,0.00
2022-12-07T13:26:18.609Z,0.10
2022-12-07T13:28:51.670Z,0.10
2022-12-07T13:31:44.689Z,0.10
2022-12-07T13:34:37.468Z,0.17
2022-12-07T13:37:26.906Z,0.20
2022-12-07T13:40:00.204Z,0.30
2022-12-07T13:42:29.427Z,0.20
2022-12-07T13:44:58.064Z,0.10
2022-12-07T13:47:36.834Z,0.10
2022-12-07T13:50:24.378Z,0.25
2022-12-07T13:52:51.017Z,0.50
2022-12-07T13:55:18.315Z,0.60
2022-12-07T13:57:48.401Z,0.68
2022-12-07T14:00:18.924Z,0.50
2022-12-07T14:03:03.816Z,0.30
2022-12-07T14:05:32.312Z,0.32
2022-12-07T14:08:22.970Z,0.30
2022-12-07T14:10:49.441Z,0.30
2022-12-07T14:13:36.085Z,0.30
2022-12-07T14:16:04.081Z,1.00
2022-12-07T14:18:38.061Z,0.68
2022-12-07T14:21:10.744Z,0.20
2022-12-07T14:23:39.123Z,0.25
2022-12-07T14:26:14.392Z,0.20
2022-12-07T14:28:41.840Z,0.30
2022-12-07T14:31:22.619Z,0.20
2022-12-07T14:33:51.773Z,0.20
2022-12-07T14:36:18.261Z,0.30
2022-12-07T14:38:44.763Z,0.43
2022-12-07T14:41:35.101Z,0.55
2022-12-07T14:44:22.369Z,0.60
2022-12-07T14:46:49.829Z,0.57
2022-12-07T14:54:46.165Z,0.20
2022-12-07T14:57:13.065Z,0.10
2022-12-07T14:59:44.875Z,0.20
2022-12-07T15:02:13.411Z,0.28
2022-12-07T15:04:40.344Z,0.40
2022-12-07T15:07:14.184Z,0.30
2022-12-07T15:09:40.611Z,0.20
2022-12-07T15:12:07.235Z,0.40
2022-12-07T15:14:33.849Z,0.50
2022-12-07T15:17:09.856Z,0.20
2022-12-07T15:19:37.311Z,0.75
2022-12-07T15:22:03.983Z,0.10
2022-12-07T15:24:30.581Z,0.40
2022-12-07T15:26:57.090Z,0.10
2022-12-07T15:29:24.158Z,0.20
2022-12-07T15:31:59.226Z,0.10
2022-12-07T15:34:31.920Z,0.30
2022-12-07T15:37:02.875Z,0.40
2022-12-07T15:39:29.345Z,0.50
2022-12-07T15:41:55.914Z,0.47
2022-12-07T15:44:41.051Z,0.20
2022-12-07T15:47:07.592Z,0.60
2022-12-07T15:49:34.110Z,0.30
2022-12-07T15:52:00.686Z,0.30
2022-12-07T15:54:29.085Z,0.20
2022-12-07T15:56:56.355Z,0.30
2022-12-07T15:59:23.112Z,0.50
2022-12-07T16:01:49.583Z,1.90
2022-12-07T16:04:16.205Z,1.75
2022-12-07T16:06:42.628Z,2.83
2022-12-07T16:09:09.763Z,3.58
2022-12-07T16:11:36.274Z,3.47
2022-12-07T16:14:03.004Z,3.27
2022-12-07T16:16:30.431Z,3.22
2022-12-07T16:18:58.408Z,1.30
2022-12-07T16:21:25.844Z,1.17
2022-12-07T16:23:52.951Z,1.08
2022-12-07T16:26:22.589Z,2.57
2022-12-07T16:28:50.940Z,5.10
2022-12-07T16:31:19.891Z,3.92
2022-12-07T16:33:47.124Z,3.88
2022-12-07T16:36:28.890Z,2.63
2022-12-07T16:39:04.793Z,2.63
2022-12-07T16:41:31.486Z,2.72
2022-12-07T16:43:58.005Z,2.17
2022-12-07T16:46:24.555Z,2.28
2022-12-07T16:48:51.052Z,2.08
2022-12-07T16:51:17.689Z,1.73
2022-12-07T16:53:44.195Z,1.60
2022-12-07T16:56:15.603Z,0.85
2022-12-07T16:58:45.603Z,0.90
2022-12-07T17:01:17.810Z,1.60
2022-12-07T17:03:45.423Z,1.60
2022-12-07T17:06:18.275Z,0.95
2022-12-07T17:08:45.193Z,1.00
2022-12-07T17:11:23.143Z,0.88
2022-12-07T17:14:09.036Z,1.00
2022-12-07T17:16:36.547Z,1.10
2022-12-07T17:19:08.373Z,1.73
2022-12-07T17:21:35.724Z,1.50
2022-12-07T17:24:04.491Z,1.23
2022-12-07T17:26:35.496Z,1.77
2022-12-07T17:29:04.368Z,1.50
2022-12-07T17:31:31.076Z,1.30
2022-12-07T17:33:57.647Z,0.80
2022-12-07T17:36:27.941Z,0.80
2022-12-07T17:38:54.657Z,0.60
2022-12-07T17:41:42.657Z,1.20
2022-12-07T17:44:12.170Z,0.82
2022-12-07T17:46:39.624Z,0.90
2022-12-07T17:49:07.208Z,1.00
2022-12-07T17:51:52.295Z,0.93
2022-12-07T17:54:19.127Z,0.73
2022-12-07T17:56:45.781Z,1.42
2022-12-07T17:59:12.953Z,0.50
2022-12-07T18:01:40.638Z,0.73
2022-12-07T18:04:07.756Z,0.60
2022-12-07T18:06:34.775Z,1.07
2022-12-07T18:09:01.693Z,0.70
2022-12-07T18:11:28.363Z,0.82
2022-12-07T18:13:54.815Z,2.05
2022-12-07T18:16:24.123Z,1.80
2022-12-07T18:18:53.963Z,1.60
2022-12-07T18:21:26.435Z,1.30
2022-12-07T18:23:56.932Z,1.40
2022-12-07T18:26:25.864Z,1.35
2022-12-07T18:28:52.910Z,1.40
2022-12-07T18:31:20.563Z,2.20
2022-12-07T18:33:48.292Z,1.50
2022-12-07T18:36:17.089Z,1.50
2022-12-07T18:38:44.708Z,1.58
2022-12-07T18:41:14.174Z,1.75
2022-12-07T18:43:42.053Z,2.00
2022-12-07T18:46:20.004Z,1.63
2022-12-07T18:48:47.594Z,1.20
2022-12-07T18:51:15.398Z,1.13
2022-12-07T18:53:42.432Z,1.15
2022-12-07T18:56:15.715Z,1.30
2022-12-07T18:59:03.262Z,1.20
2022-12-07T19:01:31.620Z,1.60
2022-12-07T19:03:59.589Z,1.13
2022-12-07T19:06:26.816Z,1.30
2022-12-07T19:08:54.360Z,1.50
2022-12-07T19:11:45.689Z,1.50
2022-12-07T19:14:13.156Z,1.30
2022-12-07T19:16:42.188Z,1.30
2022-12-07T19:19:08.973Z,1.08
2022-12-07T19:21:35.628Z,1.30
2022-12-07T19:24:06.554Z,1.20
2022-12-07T19:26:33.712Z,1.55
2022-12-07T19:29:00.540Z,1.27
2022-12-07T19:31:27.155Z,1.70
2022-12-07T19:33:53.706Z,2.80
2022-12-07T19:36:20.263Z,2.40
2022-12-07T19:38:46.833Z,2.55
2022-12-07T19:41:49.648Z,2.65
2022-12-07T19:44:22.777Z,2.60
2022-12-07T19:46:51.158Z,1.87
2022-12-07T19:49:18.912Z,2.00
2022-12-07T19:51:48.206Z,1.85
2022-12-07T19:54:16.704Z,2.40
2022-12-07T19:56:44.156Z,2.60
2022-12-07T19:59:12.357Z,2.57
2022-12-07T20:01:40.794Z,2.13
2022-12-07T20:04:13.045Z,3.25
2022-12-07T20:06:39.887Z,2.42
2022-12-07T20:09:06.500Z,1.73
2022-12-07T20:11:51.736Z,1.90
2022-12-07T20:14:18.412Z,2.03
2022-12-07T20:16:45.741Z,1.98
2022-12-07T20:19:14.146Z,1.58
2022-12-07T20:21:42.149Z,1.52
2022-12-07T20:24:11.805Z,1.50
2022-12-07T20:26:39.327Z,1.65
2022-12-07T20:29:10.945Z,1.77
2022-12-07T20:31:38.606Z,1.40
2022-12-07T20:34:05.170Z,1.65
2022-12-07T20:36:33.387Z,2.10
2022-12-07T20:39:01.524Z,2.13
2022-12-07T20:41:46.649Z,2.70
2022-12-07T20:44:14.678Z,2.40
2022-12-07T20:46:41.521Z,2.03
2022-12-07T20:49:08.881Z,1.50
2022-12-07T20:51:35.372Z,1.83
2022-12-07T20:54:01.853Z,1.50
2022-12-07T20:56:31.073Z,1.55
2022-12-07T20:59:00.925Z,1.80
2022-12-07T21:01:27.898Z,1.33
2022-12-07T21:03:59.639Z,1.20
2022-12-07T21:06:27.818Z,1.20
2022-12-07T21:08:57.082Z,1.92
2022-12-07T21:11:25.282Z,1.80
2022-12-07T21:13:51.909Z,1.20
2022-12-07T21:16:24.540Z,1.42
2022-12-07T21:18:51.459Z,1.13
2022-12-07T21:21:19.689Z,1.08
2022-12-07T21:23:51.248Z,1.20
2022-12-07T21:26:25.814Z,1.10
2022-12-07T21:28:52.967Z,1.27
2022-12-07T21:31:19.724Z,1.45
2022-12-07T21:33:46.718Z,0.90
2022-12-07T21:36:16.131Z,1.08
2022-12-07T21:38:43.280Z,0.77
2022-12-07T21:41:13.642Z,1.15
2022-12-07T21:43:40.369Z,1.13
2022-12-07T21:46:07.062Z,1.00
2022-12-07T21:48:33.762Z,1.25
2022-12-07T21:51:09.082Z,0.87
2022-12-07T21:53:36.518Z,1.40
2022-12-07T21:56:03.815Z,1.35
2022-12-07T21:58:31.243Z,1.20
2022-12-07T22:00:59.126Z,1.15
2022-12-07T22:03:25.638Z,0.90
2022-12-07T22:05:52.176Z,1.00
2022-12-07T22:08:19.302Z,1.10
2022-12-07T22:10:45.800Z,0.90
2022-12-07T22:13:12.475Z,1.08
2022-12-07T22:15:41.222Z,0.83
2022-12-07T22:18:08.244Z,1.10
2022-12-07T22:20:35.252Z,1.20
2022-12-07T22:23:02.256Z,1.42
2022-12-07T22:25:28.752Z,1.20
2022-12-07T22:27:55.311Z,1.10
2022-12-07T22:30:21.784Z,1.17
2022-12-07T22:32:49.419Z,1.17
2022-12-07T22:35:16.518Z,1.00
2022-12-07T22:37:43.204Z,1.33
2022-12-07T22:40:10.508Z,1.27
2022-12-07T22:42:37.001Z,1.55
2022-12-07T22:45:04.180Z,1.10
2022-12-07T22:47:30.908Z,1.05
2022-12-07T22:49:57.470Z,1.00
2022-12-07T22:52:23.966Z,1.37
2022-12-07T22:54:50.401Z,1.30
2022-12-07T22:57:16.943Z,0.90
2022-12-07T22:59:43.434Z,1.20
2022-12-07T23:02:09.940Z,1.88
2022-12-07T23:04:36.489Z,1.30
2022-12-07T23:07:03.071Z,1.10
2022-12-07T23:09:29.663Z,1.40
2022-12-07T23:12:14.668Z,1.20
2022-12-07T23:14:41.160Z,1.05
2022-12-07T23:17:07.594Z,1.10
2022-12-07T23:19:34.164Z,0.88
2022-12-07T23:22:00.591Z,1.33
2022-12-07T23:24:27.152Z,1.20
2022-12-07T23:26:53.890Z,1.00
2022-12-07T23:29:20.546Z,1.03
2022-12-07T23:31:48.137Z,1.30
2022-12-07T23:34:15.295Z,1.63
2022-12-07T23:36:41.871Z,1.67
2022-12-07T23:39:09.444Z,1.20
2022-12-07T23:41:35.939Z,1.03
2022-12-07T23:44:02.829Z,1.52
2022-12-07T23:46:31.681Z,1.25
2022-12-07T23:49:00.143Z,1.25
2022-12-07T23:51:26.701Z,0.85
2022-12-07T23:53:54.010Z,1.20
2022-12-07T23:56:26.864Z,1.48
2022-12-07T23:58:54.845Z,1.25
